Wise, VA (24293)

11:11 PM EDT on July 22, 2014 (GMT -0400)
Lonesome Pine (KLNP) Elev 2684 ft | 36.99 °N, 82.53 °W | Change Station

Current weather conditions updated 16 minutes ago

Scattered Clouds
Scattered Clouds
70 °F
Feels Like 70 °F
N
0
Wind Variable Wind from North

Tomorrow is forecast to be Cooler than today. Thunderstorms.

Today
High -- | Low -- °F
--% Chance of Precip.
Yesterday
High -- | Low -- °F
Precip. -- in
6:27 AM 8:45 PM
Waning Crescent, 13% visible
Pressure 30.21 in
Visibility 10.0 miles
Clouds Scattered Clouds 9000 ft
Dew Point 68 °F
Humidity 94%
Rainfall 0.00 in
Snow Depth Not available.
UV 0 out of 12
Pollen 3.30 out of 12
Air Quality Not available.
Flu Activity Not available.
METAR KLNP 230255Z AUTO 00000KT 10SM SCT090 21/20 A3021 RMK AO2

More Conditions Fewer Conditions

Pressure 30.21 in
Visibility 10.0 miles
Clouds Scattered Clouds 9000 ft
Dew Point 68 °F
Humidity 94%
Rainfall 0.00 in
Snow Depth Not available.
UV 0 out of 12
Pollen 3.30 out of 12
Air Quality Not available.
Flu Activity Not available.
METAR KLNP 230255Z AUTO 00000KT 10SM SCT090 21/20 A3021 RMK AO2

More Conditions Fewer Conditions

10-Day Weather Forecast

Almanac

Astronomy

Jul. 22, 2014 Rise Set
Actual Time 6:27 AM EDT 8:45 PM EDT
Civil Twilight 5:58 AM EDT 9:14 PM EDT
Nautical Twilight 5:21 AM EDT 9:50 PM EDT
Astronomical Twilight 4:42 AM EDT 10:30 PM EDT
Moon 2:58 AM EDT (7/22) 5:22 PM EDT (7/22)
Length of Visible Light 15h 16m
Length of Day
14h 17m
Tomorrow will be 1m 29s shorter.
Waning Crescent, 13% of the Moon is Illuminated
Today
Waning Crescent
Jul 26
New
Aug 3
First Quarter
Aug 10
Full
Aug 17
Last Quarter

Today's Extremes

State Highs State Lows

Community

WunderPhotos

Upload Photos

1,736,472 photos uploaded!

Nearby

Snow Depth

Station Depth Elevation
No new snow has been reported.

Earthquake Activity

City Distance Mag. Time & Date
No recent earthquake activity has been reported nearby.
Minimum magnitude displayed is 2.5.

Coastal Water Temperatures

Place Temperature
No Stations Reporting

Nearby Weather Stations

Station Location Temp. Heat Index Dew Point Humidity Wind Precip. Elev Updated Type
RAWS WISE VA, Wise, VA 70 °F - 67 °F 91% North  at  0 mph 0.00 in / hr 2529 ft 10:11 PM EDT MADIS
RAWS PRAWS 12 KY, Jenkins, KY 74 °F 74 °F 68 °F 81% North  at  0 mph 0.00 in / hr 1974 ft 9:47 PM EDT MADIS
Southwest Virginia, 4 miles SSE, Nora, VA 76.2 °F 78 °F 68 °F 76% North  at  0.0 mph 0.00 in / hr 2650 ft 9:20 PM EDT Normal
Ramey Flats, Clintwood, VA 70.0 °F - 69 °F 98% SE  at  0.0 mph 0.00 in / hr 1795 ft 10:57 PM EDT Normal
W4CSN, Nottingham, Gate City, VA 70.2 °F - 68 °F 93% North  at  0.0 mph 0.00 in / hr 1309 ft 11:11 PM EDT Rapid Fire

Show More Stations Show Fewer Stations